Latest Coastal Weather Observations for Moruya Airport

IDN60701

Issued at 3:25 am EST Thursday 24 April 2014 (issued every 10 minutes, with the page automatically refreshed every 10 minutes)

About coastal observations | Map of coastal stations | Coastal observations for NSW | Marine services | Other Formats
Station Details ID: 069148 Name: MORUYA AIRPORT AWS Lat: -35.90 Lon: 150.14 Height: 4.0 m
Data from the previous 72 hours. | See also: Recent months for locations in New South Wales
Date/Time
EST
Temp

°C
Wind Pressure Rain
since 9am
mm
Weather Cloud Vis
km
Sea
Height
m
Swell
Dir
 
Speed
knots
Gust
knots
hPa Trend Height
m
Period
s
Dir
24/03:00am 17.0 NW 5 8 1010.2 - 0.0 - - 10 - - - -
24/02:30am 14.8 N 5 7 1010.7 - 0.0 - - 10 - - - -
24/02:00am 14.8 N 6 7 1010.9 - 0.0 - - 10 - - - -
24/01:30am 14.4 N 4 5 1011.3 - 0.0 - - 10 - - - -
24/01:00am 14.9 NNE 2 4 1011.5 - 0.0 - - 10 - - - -
24/12:30am 14.5 N 4 5 1011.6 - 0.0 - - 10 - - - -
24/12:00am 14.9 N 2 4 1011.8 - 0.0 - - 10 - - - -
 
Date/Time
EST
Temp

°C
Wind Pressure Rain
since 9am
mm
Weather Cloud Vis
km
Sea
Height
m
Swell
Dir
 
Speed
knots
Gust
knots
hPa Trend Height
m
Period
s
Dir
23/11:30pm 14.8 N 3 5 1012.0 - 0.0 - - 10 - - - -
23/11:00pm 14.3 CALM 0 0 1012.3 - 0.0 - - 10 - - - -
23/10:30pm 14.3 CALM 0 0 1012.6 - 0.0 - - 10 - - - -
23/10:00pm 14.5 NW 4 5 1012.7 - 0.0 - - 10 - - - -
23/09:30pm 14.7 N 4 5 1012.8 - 0.0 - - 10 - - - -
23/09:00pm 14.6 N 3 5 1012.9 - 0.0 - - 10 - - - -
23/08:30pm 15.1 NW 1 4 1013.1 - 0.0 - - 10 - - - -
23/08:00pm 15.6 NNW 4 5 1013.1 - 0.0 - - 10 - - - -
23/07:30pm 16.1 NNW 5 6 1013.1 - 0.0 - - 10 - - - -
23/07:00pm 16.4 N 5 7 1013.1 - 0.0 - - 10 - - - -
23/06:30pm 16.5 N 3 5 1012.9 - 0.0 - - 10 - - - -
23/06:00pm 16.9 N 3 4 1012.7 - 0.0 - - 10 - - - -
23/05:30pm 19.3 N 3 5 1012.6 - 0.0 - - 10 - - - -
23/05:00pm 21.7 NNW 4 6 1012.3 - 0.0 - - 10 - - - -
23/04:30pm 23.5 N 5 7 1012.1 - 0.0 - - 8 - - - -
23/04:00pm 23.2 N 8 13 1012.1 - 0.0 - Partly cloudy 10 - - - -
23/03:30pm 22.9 NE 8 10 1012.2 - 0.0 - - 10 - - - -
23/03:00pm 23.4 N 6 8 1012.2 - 0.0 - - 10 - - - -
23/02:30pm 21.7 N 6 9 1012.5 - 0.0 - Partly cloudy 10 - - - -
23/02:00pm 20.9 N 5 7 1012.7 - 0.0 - Partly cloudy 10 - - - -
23/01:30pm 21.3 NNE 8 11 1013.2 - 0.0 - Partly cloudy 10 - - - -
23/01:00pm 21.7 NNE 10 14 1013.4 - 0.0 - - 10 - - - -
23/12:30pm 21.3 NE 8 10 1014.3 - 0.0 - Partly cloudy 10 - - - -
23/12:00pm 20.6 NNE 4 5 1015.0 - 0.0 - Partly cloudy 10 - - - -
23/11:30am 20.6 ENE 4 6 1015.7 - 0.0 - Partly cloudy 10 - - - -
23/11:00am 21.9 ENE 4 6 1016.2 - 0.0 - Partly cloudy 10 - - - -
23/10:30am 19.9 SW 3 5 1016.7 - 0.0 - Partly cloudy 10 - - - -
23/10:00am 19.2 WSW 5 8 1017.2 - 0.0 - Partly cloudy 10 - - - -
23/09:30am 19.7 WSW 4 6 1017.0 - 0.0 - Partly cloudy 10 - - - -
23/09:00am 20.6 W 4 6 1016.7 - 0.0 - - 10 - - - -
23/08:30am 18.8 WSW 5 8 1017.0 - 0.0 - - 10 - - - -
23/08:00am 18.3 W 5 7 1017.0 - 0.0 - Partly cloudy 10 - - - -
23/07:30am 16.2 WSW 3 5 1017.0 - 0.0 - Partly cloudy 10 - - - -
23/07:00am 15.1 W 5 8 1016.9 - 0.0 - Partly cloudy 10 - - - -
23/06:30am 14.7 SW 4 6 1016.4 - 0.0 - - 10 - - - -
23/06:00am 15.0 W 6 8 1016.3 - 0.0 - - 10 - - - -
23/05:30am 15.4 WSW 5 6 1016.3 - 0.0 - Partly cloudy 10 - - - -
23/05:00am 15.4 W 6 8 1016.4 - 0.0 - Partly cloudy 10 - - - -
23/04:30am 14.9 W 4 6 1016.0 - 0.0 - Partly cloudy 10 - - - -
23/04:00am 15.4 W 4 5 1016.2 - 0.0 - Partly cloudy 10 - - - -
23/03:30am 15.3 W 6 8 1016.1 - 0.0 - Partly cloudy 10 - - - -
23/03:00am 15.4 W 5 8 1015.9 - 0.0 - Partly cloudy 10 - - - -
23/02:30am 14.9 SW 9 11 1015.8 - 0.0 - Partly cloudy 10 - - - -
23/02:00am 14.5 W 3 5 1015.9 - 0.0 - Partly cloudy 10 - - - -
23/01:30am 13.7 WSW 1 4 1016.0 - 0.0 - Partly cloudy 10 - - - -
23/01:00am 13.6 CALM 0 0 1016.0 - 0.0 - Partly cloudy 10 - - - -
23/12:30am 13.5 W 2 4 1016.1 - 0.0 - Partly cloudy 10 - - - -
23/12:00am 13.3 CALM 0 0 1015.7 - 0.0 - - 10 - - - -
 
Date/Time
EST
Temp

°C
Wind Pressure Rain
since 9am
mm
Weather Cloud Vis
km
Sea
Height
m
Swell
Dir
 
Speed
knots
Gust
knots
hPa Trend Height
m
Period
s
Dir
22/11:30pm 13.4 WNW 4 5 1015.9 - 0.0 - - 10 - - - -
22/11:00pm 13.4 WSW 4 6 1016.1 - 0.0 - - 10 - - - -
22/10:30pm 13.7 NW 4 6 1016.0 - 0.0 - - 10 - - - -
22/10:00pm 13.6 W 5 6 1016.1 - 0.0 - - 10 - - - -
22/09:30pm 14.0 W 5 7 1016.0 - 0.0 - - 10 - - - -
22/09:00pm 14.7 WSW 5 7 1015.8 - 0.0 - - 10 - - - -
22/08:30pm 14.7 WSW 4 5 1015.7 - 0.0 - - 10 - - - -
22/08:00pm 16.7 WSW 5 6 1015.6 - 0.0 - - 10 - - - -
22/07:30pm 18.3 WSW 6 7 1015.5 - 0.0 - - 10 - - - -
22/07:00pm 18.3 WSW 5 7 1015.3 - 0.0 - - 10 - - - -
22/06:30pm 19.2 WSW 7 8 1015.0 - 0.0 - - 10 - - - -
22/06:00pm 19.7 SW 8 11 1014.4 - 0.0 - - 10 - - - -
22/05:30pm 20.3 SSW 6 11 1014.2 - 0.0 - - 10 - - - -
22/05:00pm 20.6 SSW 5 7 1013.8 - 0.0 - - 10 - - - -
22/04:30pm 21.4 S 6 9 1013.6 - 0.0 - - 10 - - - -
22/04:00pm 22.3 NNE 5 6 1013.1 - 0.0 - - 10 - - - -
22/03:30pm 22.6 NE 6 8 1013.0 - 0.0 - - 10 - - - -
22/03:00pm 22.9 NE 6 7 1012.9 - 0.0 - - 10 - - - -
22/02:30pm 23.1 NNE 7 9 1012.9 - 0.0 - - 10 - - - -
22/02:00pm 23.0 NE 7 9 1013.0 - 0.0 - - 10 - - - -
22/01:30pm 23.2 NE 8 10 1013.2 - 0.0 - - 10 - - - -
22/01:00pm 23.2 NE 7 8 1013.5 - 0.0 - - 10 - - - -
22/12:30pm 22.9 ENE 6 7 1014.2 - 0.0 - - 10 - - - -
22/12:00pm 22.3 E 5 6 1014.4 - 0.0 - - 10 - - - -
22/11:30am 22.2 E 4 6 1015.0 - 0.0 - - 10 - - - -
22/11:00am 21.0 E 5 6 1015.3 - 0.0 - - 10 - - - -
22/10:30am 20.4 NE 5 7 1015.5 - 0.0 - - 10 - - - -
22/10:00am 18.7 NE 4 6 1015.9 - 0.0 - - 10 - - - -
22/09:30am 16.7 CALM 0 0 1016.1 - 0.0 - - 10 - - - -
22/09:00am 15.4 CALM 0 2 1015.9 - 0.0 - - 10 - - - -
22/08:30am 14.1 NNW 1 4 1016.0 - 0.0 - - 10 - - - -
22/08:00am 12.6 W 1 3 1016.0 - 0.0 - - 10 - - - -
22/07:30am 10.9 CALM 0 0 1016.0 - 0.0 - - 10 - - - -
22/07:00am 10.0 CALM 0 0 1015.9 - 0.0 - - 10 - - - -
22/06:47am 9.5 CALM 0 0 1015.9 - 0.0 - - 9 - - - -
22/06:30am 9.0 CALM 0 0 1015.8 - 0.0 - - 5 - - - -
22/06:20am 9.1 CALM 0 0 1015.9 - 0.0 - - 5 - - - -
22/06:00am 9.4 CALM 0 0 1015.8 - 0.0 - - 8 - - - -
22/05:43am 9.3 CALM 0 0 1015.9 - 0.0 - - 6 - - - -
22/05:30am 9.2 CALM 0 0 1016.0 - 0.0 - - 5 - - - -
22/05:00am 9.6 CALM 0 0 1015.9 - 0.0 - - 1 - - - -
22/04:56am 9.5 CALM 0 0 1016.0 - 0.0 - - 4 - - - -
22/04:30am 10.1 CALM 0 0 1016.0 - 0.0 - - 10 - - - -
22/04:00am 10.0 CALM 0 0 1016.1 - 0.0 - - 6 - - - -
22/03:53am 9.9 CALM 0 0 1016.1 - 0.0 - - 7 - - - -
22/03:30am 9.8 CALM 0 0 1016.3 - 0.0 - - 2 - - - -
22/03:06am 10.1 CALM 0 0 1016.3 - 0.0 - - 5 - - - -
22/03:00am 10.1 CALM 0 2 1016.2 - 0.0 - - 10 - - - -
22/02:30am 10.4 CALM 0 0 1016.7 - 0.0 - - 9 - - - -
22/02:00am 10.8 NW 1 3 1016.9 - 0.0 - - 10 - - - -
22/01:30am 11.2 NW 4 6 1017.2 - 0.0 - - 10 - - - -
22/01:00am 12.3 NW 4 6 1017.7 - 0.0 - - 10 - - - -
22/12:30am 12.5 NW 5 6 1018.0 - 0.0 - - 10 - - - -
22/12:00am 12.4 NW 5 7 1018.2 - 0.0 - - 10 - - - -
 
Date/Time
EST
Temp

°C
Wind Pressure Rain
since 9am
mm
Weather Cloud Vis
km
Sea
Height
m
Swell
Dir
 
Speed
knots
Gust
knots
hPa Trend Height
m
Period
s
Dir
21/11:30pm 12.9 NW 5 7 1018.4 - 0.0 - - 10 - - - -
21/11:00pm 12.1 NW 4 5 1018.6 - 0.0 - - 10 - - - -
21/10:30pm 12.4 NNW 5 6 1018.8 - 0.0 - - 10 - - - -
21/10:00pm 12.5 NW 4 5 1019.1 - 0.0 - - 10 - - - -
21/09:30pm 13.2 NW 4 6 1019.1 - 0.0 - - 10 - - - -
21/09:00pm 14.1 NW 5 7 1019.1 - 0.0 - - 10 - - - -
21/08:30pm 14.2 NW 4 5 1019.1 - 0.0 - - 10 - - - -
21/08:00pm 15.8 NW 5 7 1019.1 - 0.0 - - 10 - - - -
21/07:30pm 16.2 N 7 9 1019.1 - 0.0 - - 10 - - - -
21/07:00pm 15.6 NNW 5 7 1019.2 - 0.0 - - 10 - - - -
21/06:30pm 15.8 NNW 4 6 1019.1 - 0.0 - - 10 - - - -
21/06:00pm 16.8 NNW 5 7 1018.8 - 0.0 - - 10 - - - -
21/05:30pm 17.7 N 5 7 1018.6 - 0.0 - - 10 - - - -
21/05:00pm 18.9 NNE 10 12 1018.3 - 0.0 - - 10 - - - -
21/04:30pm 19.5 NNE 11 14 1018.3 - 0.0 - - 10 - - - -
21/04:00pm 19.4 NNE 11 14 1018.5 - 0.0 - - 10 - - - -
21/03:30pm 20.0 NE 10 13 1018.7 - 0.0 - - 10 - - - -
21/03:00pm 20.0 NE 11 13 1018.6 - 0.0 - - 10 - - - -
21/02:30pm 20.9 NE 13 16 1018.5 - 0.0 - - 10 - - - -
21/02:00pm 20.3 NE 10 13 1018.8 - 0.0 - - 10 - - - -
21/01:30pm 20.4 NE 10 12 1019.0 - 0.0 - - 10 - - - -
21/01:00pm 20.4 ENE 9 12 1019.1 - 0.0 - Partly cloudy 10 - - - -
21/12:30pm 20.3 ENE 7 8 1019.6 - 0.0 - Partly cloudy 10 - - - -
21/12:00pm 20.7 E 5 7 1020.2 - 0.0 - - 10 - - - -
21/11:30am 19.4 ESE 6 7 1020.5 - 0.0 - - 10 - - - -
21/11:00am 19.2 E 6 8 1020.8 - 0.0 - - 10 - - - -
21/10:30am 19.3 ENE 6 8 1020.9 - 0.0 - - 10 - - - -
21/10:00am 19.2 CALM 0 3 1021.2 - 0.0 - - 10 - - - -
21/09:30am 17.4 SW 5 6 1021.3 - 0.0 - - 10 - - - -
21/09:00am 15.9 SW 5 6 1021.2 - 0.0 - - 10 - - - -
21/08:30am 14.4 SW 5 6 1021.4 - 0.0 - - 10 - - - -
21/08:00am 13.0 SW 6 7 1021.0 - 0.0 - - 10 - - - -
21/07:30am 11.4 CALM 0 0 1020.6 - 0.0 - - 10 - - - -
21/07:00am 9.1 CALM 0 2 1020.3 - 0.0 - - 10 - - - -
21/06:30am 9.2 W 4 6 1019.9 - 0.0 - - 10 - - - -
21/06:00am 9.4 WSW 4 6 1019.4 - 0.0 - - 10 - - - -
21/05:30am 10.5 W 3 4 1019.4 - 0.0 - Partly cloudy 10 - - - -
21/05:00am 11.9 W 5 7 1019.4 - 0.0 - Partly cloudy 10 - - - -
21/04:30am 11.7 WSW 5 6 1019.0 - 0.0 - Partly cloudy 10 - - - -
21/04:00am 11.7 WSW 4 5 1018.6 - 0.0 - Partly cloudy 10 - - - -
21/03:30am 11.8 SW 5 7 1018.5 - 0.0 - Partly cloudy 10 - - - -

Other Formats:

Comma delimited format used in spreadsheet applications
http://www.bom.gov.au/fwo/IDN60701/IDN60701.95937.axf

JavaScript Object Notation format (JSON) in row-major order
http://www.bom.gov.au/fwo/IDN60701/IDN60701.95937.json